sensor_id;sensor_type;location;lat;lon;timestamp;temperature;humidity
21508;DHT22;10915;54.352;9.074;2023-02-15T00:00:06;1.00;99.90
21508;DHT22;10915;54.352;9.074;2023-02-15T00:02:33;1.10;99.90
21508;DHT22;10915;54.352;9.074;2023-02-15T00:04:59;1.10;99.90
21508;DHT22;10915;54.352;9.074;2023-02-15T00:07:25;1.10;99.90
21508;DHT22;10915;54.352;9.074;2023-02-15T00:09:50;1.20;99.90
21508;DHT22;10915;54.352;9.074;2023-02-15T00:12:16;1.20;99.90
21508;DHT22;10915;54.352;9.074;2023-02-15T00:14:42;1.20;99.90
21508;DHT22;10915;54.352;9.074;2023-02-15T00:17:07;1.20;99.90
21508;DHT22;10915;54.352;9.074;2023-02-15T00:19:33;1.20;99.90
21508;DHT22;10915;54.352;9.074;2023-02-15T00:21:59;1.20;99.90
21508;DHT22;10915;54.352;9.074;2023-02-15T00:24:25;1.10;99.90
21508;DHT22;10915;54.352;9.074;2023-02-15T00:26:51;1.10;99.90
21508;DHT22;10915;54.352;9.074;2023-02-15T00:29:18;1.10;99.90
21508;DHT22;10915;54.352;9.074;2023-02-15T00:31:44;1.20;99.90
21508;DHT22;10915;54.352;9.074;2023-02-15T00:34:18;1.20;99.90
21508;DHT22;10915;54.352;9.074;2023-02-15T00:36:45;1.20;99.90
21508;DHT22;10915;54.352;9.074;2023-02-15T00:39:11;1.20;99.90
21508;DHT22;10915;54.352;9.074;2023-02-15T00:41:38;1.20;99.90
21508;DHT22;10915;54.352;9.074;2023-02-15T00:44:04;1.10;99.90
21508;DHT22;10915;54.352;9.074;2023-02-15T00:46:30;1.00;99.90
21508;DHT22;10915;54.352;9.074;2023-02-15T00:48:56;0.90;99.90
21508;DHT22;10915;54.352;9.074;2023-02-15T00:51:22;0.80;99.90
21508;DHT22;10915;54.352;9.074;2023-02-15T00:53:48;0.80;99.90
21508;DHT22;10915;54.352;9.074;2023-02-15T00:56:14;0.90;99.90
21508;DHT22;10915;54.352;9.074;2023-02-15T00:58:40;1.00;99.90
21508;DHT22;10915;54.352;9.074;2023-02-15T01:01:08;1.00;99.90
21508;DHT22;10915;54.352;9.074;2023-02-15T01:03:34;1.10;99.90
21508;DHT22;10915;54.352;9.074;2023-02-15T01:06:00;1.00;99.90
21508;DHT22;10915;54.352;9.074;2023-02-15T01:08:26;0.90;99.90
21508;DHT22;10915;54.352;9.074;2023-02-15T01:10:52;0.90;99.90
21508;DHT22;10915;54.352;9.074;2023-02-15T01:13:18;0.90;99.90
21508;DHT22;10915;54.352;9.074;2023-02-15T01:15:44;1.00;99.90
21508;DHT22;10915;54.352;9.074;2023-02-15T01:18:11;1.00;99.90
21508;DHT22;10915;54.352;9.074;2023-02-15T01:20:38;1.00;99.90
21508;DHT22;10915;54.352;9.074;2023-02-15T01:23:07;1.00;99.90
21508;DHT22;10915;54.352;9.074;2023-02-15T01:25:34;1.10;99.90
21508;DHT22;10915;54.352;9.074;2023-02-15T01:28:00;1.10;99.90
21508;DHT22;10915;54.352;9.074;2023-02-15T01:30:26;1.10;99.90
21508;DHT22;10915;54.352;9.074;2023-02-15T01:32:51;1.10;99.90
21508;DHT22;10915;54.352;9.074;2023-02-15T01:35:17;1.00;99.90
21508;DHT22;10915;54.352;9.074;2023-02-15T01:37:43;0.90;99.90
21508;DHT22;10915;54.352;9.074;2023-02-15T01:40:12;0.90;99.90
21508;DHT22;10915;54.352;9.074;2023-02-15T01:42:39;0.90;99.90
21508;DHT22;10915;54.352;9.074;2023-02-15T01:45:24;0.90;99.90
21508;DHT22;10915;54.352;9.074;2023-02-15T01:50:37;1.00;99.90
21508;DHT22;10915;54.352;9.074;2023-02-15T01:56:14;0.80;99.90
21508;DHT22;10915;54.352;9.074;2023-02-15T01:58:42;0.80;99.90
21508;DHT22;10915;54.352;9.074;2023-02-15T02:01:08;0.80;99.90
21508;DHT22;10915;54.352;9.074;2023-02-15T02:03:49;0.60;99.90
21508;DHT22;10915;54.352;9.074;2023-02-15T02:06:15;0.60;99.90
21508;DHT22;10915;54.352;9.074;2023-02-15T02:08:41;0.60;99.90
21508;DHT22;10915;54.352;9.074;2023-02-15T02:11:11;0.60;99.90
21508;DHT22;10915;54.352;9.074;2023-02-15T02:13:38;0.50;99.90
21508;DHT22;10915;54.352;9.074;2023-02-15T02:35:49;0.60;99.90
21508;DHT22;10915;54.352;9.074;2023-02-15T02:41:08;0.50;99.90
21508;DHT22;10915;54.352;9.074;2023-02-15T02:43:44;0.50;99.90
21508;DHT22;10915;54.352;9.074;2023-02-15T02:46:27;0.50;99.90
21508;DHT22;10915;54.352;9.074;2023-02-15T02:48:54;0.50;99.90
21508;DHT22;10915;54.352;9.074;2023-02-15T02:51:19;0.50;99.90
21508;DHT22;10915;54.352;9.074;2023-02-15T02:53:48;0.40;99.90
21508;DHT22;10915;54.352;9.074;2023-02-15T02:56:27;0.40;99.90
21508;DHT22;10915;54.352;9.074;2023-02-15T02:59:08;0.40;99.90
21508;DHT22;10915;54.352;9.074;2023-02-15T03:04:23;0.30;99.90
21508;DHT22;10915;54.352;9.074;2023-02-15T03:07:02;0.30;99.90
21508;DHT22;10915;54.352;9.074;2023-02-15T03:09:30;0.20;99.90
21508;DHT22;10915;54.352;9.074;2023-02-15T03:12:11;0.20;99.90
21508;DHT22;10915;54.352;9.074;2023-02-15T03:14:40;0.20;99.90
21508;DHT22;10915;54.352;9.074;2023-02-15T03:17:07;0.20;99.90
21508;DHT22;10915;54.352;9.074;2023-02-15T03:19:36;0.30;99.90
21508;DHT22;10915;54.352;9.074;2023-02-15T03:22:18;0.30;99.90
21508;DHT22;10915;54.352;9.074;2023-02-15T03:25:09;0.30;99.90
21508;DHT22;10915;54.352;9.074;2023-02-15T03:27:38;0.30;99.90
21508;DHT22;10915;54.352;9.074;2023-02-15T03:30:07;0.30;99.90
21508;DHT22;10915;54.352;9.074;2023-02-15T03:32:34;0.30;99.90
21508;DHT22;10915;54.352;9.074;2023-02-15T03:35:03;0.30;99.90
21508;DHT22;10915;54.352;9.074;2023-02-15T03:37:41;0.30;99.90
21508;DHT22;10915;54.352;9.074;2023-02-15T03:40:32;0.20;99.90
21508;DHT22;10915;54.352;9.074;2023-02-15T03:45:59;0.10;99.90
21508;DHT22;10915;54.352;9.074;2023-02-15T03:48:33;0.20;99.90
21508;DHT22;10915;54.352;9.074;2023-02-15T03:54:15;0.20;99.90
21508;DHT22;10915;54.352;9.074;2023-02-15T03:57:05;0.10;99.90
21508;DHT22;10915;54.352;9.074;2023-02-15T03:59:51;0.20;99.90
21508;DHT22;10915;54.352;9.074;2023-02-15T04:02:44;0.10;99.90
21508;DHT22;10915;54.352;9.074;2023-02-15T04:05:13;0.10;99.90
21508;DHT22;10915;54.352;9.074;2023-02-15T04:07:38;0.10;99.90
21508;DHT22;10915;54.352;9.074;2023-02-15T04:10:05;0.20;99.90
21508;DHT22;10915;54.352;9.074;2023-02-15T04:12:53;0.20;99.90
21508;DHT22;10915;54.352;9.074;2023-02-15T04:15:19;0.10;99.90
21508;DHT22;10915;54.352;9.074;2023-02-15T04:18:03;0.20;99.90
21508;DHT22;10915;54.352;9.074;2023-02-15T04:20:29;0.20;99.90
21508;DHT22;10915;54.352;9.074;2023-02-15T04:23:13;0.20;99.90
21508;DHT22;10915;54.352;9.074;2023-02-15T04:25:58;0.20;99.90
21508;DHT22;10915;54.352;9.074;2023-02-15T04:28:23;0.20;99.90
21508;DHT22;10915;54.352;9.074;2023-02-15T04:30:49;0.20;99.90
21508;DHT22;10915;54.352;9.074;2023-02-15T04:33:14;0.20;99.90
21508;DHT22;10915;54.352;9.074;2023-02-15T04:35:40;0.20;99.90
21508;DHT22;10915;54.352;9.074;2023-02-15T04:38:06;0.30;99.90
21508;DHT22;10915;54.352;9.074;2023-02-15T04:40:31;0.30;99.90
21508;DHT22;10915;54.352;9.074;2023-02-15T04:42:57;0.30;99.90
21508;DHT22;10915;54.352;9.074;2023-02-15T04:45:23;0.40;99.90
21508;DHT22;10915;54.352;9.074;2023-02-15T04:47:48;0.50;99.90
21508;DHT22;10915;54.352;9.074;2023-02-15T04:50:14;0.40;99.90
21508;DHT22;10915;54.352;9.074;2023-02-15T04:52:40;0.50;99.90
21508;DHT22;10915;54.352;9.074;2023-02-15T04:55:06;0.50;99.90
21508;DHT22;10915;54.352;9.074;2023-02-15T04:57:32;0.40;99.90
21508;DHT22;10915;54.352;9.074;2023-02-15T04:59:57;0.40;99.90
21508;DHT22;10915;54.352;9.074;2023-02-15T05:02:24;0.50;99.90
21508;DHT22;10915;54.352;9.074;2023-02-15T05:04:50;0.50;99.90
21508;DHT22;10915;54.352;9.074;2023-02-15T05:07:15;0.50;99.90
21508;DHT22;10915;54.352;9.074;2023-02-15T05:09:41;0.50;99.90
21508;DHT22;10915;54.352;9.074;2023-02-15T05:12:07;0.60;99.90
21508;DHT22;10915;54.352;9.074;2023-02-15T05:14:33;0.50;99.90
21508;DHT22;10915;54.352;9.074;2023-02-15T05:16:59;0.50;99.90
21508;DHT22;10915;54.352;9.074;2023-02-15T05:19:27;0.50;99.90
21508;DHT22;10915;54.352;9.074;2023-02-15T05:21:53;0.70;99.90
21508;DHT22;10915;54.352;9.074;2023-02-15T05:24:18;0.60;99.90
21508;DHT22;10915;54.352;9.074;2023-02-15T05:27:03;0.50;99.90
21508;DHT22;10915;54.352;9.074;2023-02-15T05:29:47;0.60;99.90
21508;DHT22;10915;54.352;9.074;2023-02-15T05:32:14;0.60;99.90
21508;DHT22;10915;54.352;9.074;2023-02-15T05:34:40;0.60;99.90
21508;DHT22;10915;54.352;9.074;2023-02-15T05:37:05;0.70;99.90
21508;DHT22;10915;54.352;9.074;2023-02-15T05:39:33;0.70;99.90
21508;DHT22;10915;54.352;9.074;2023-02-15T05:42:02;0.70;99.90
21508;DHT22;10915;54.352;9.074;2023-02-15T05:44:27;0.70;99.90
21508;DHT22;10915;54.352;9.074;2023-02-15T05:46:53;0.70;99.90
21508;DHT22;10915;54.352;9.074;2023-02-15T05:49:19;0.80;99.90
21508;DHT22;10915;54.352;9.074;2023-02-15T05:51:44;0.80;99.90
21508;DHT22;10915;54.352;9.074;2023-02-15T05:54:10;0.80;99.90
21508;DHT22;10915;54.352;9.074;2023-02-15T05:56:36;0.80;99.90
21508;DHT22;10915;54.352;9.074;2023-02-15T05:59:01;0.90;99.90
21508;DHT22;10915;54.352;9.074;2023-02-15T06:01:27;0.90;99.90
21508;DHT22;10915;54.352;9.074;2023-02-15T06:03:53;0.90;99.90
21508;DHT22;10915;54.352;9.074;2023-02-15T06:06:20;1.00;99.90
21508;DHT22;10915;54.352;9.074;2023-02-15T06:08:46;1.00;99.90
21508;DHT22;10915;54.352;9.074;2023-02-15T06:11:11;1.10;99.90
21508;DHT22;10915;54.352;9.074;2023-02-15T06:13:40;1.20;99.90
21508;DHT22;10915;54.352;9.074;2023-02-15T06:16:06;1.20;99.90
21508;DHT22;10915;54.352;9.074;2023-02-15T06:18:32;1.20;99.90
21508;DHT22;10915;54.352;9.074;2023-02-15T06:20:58;1.20;99.90
21508;DHT22;10915;54.352;9.074;2023-02-15T06:23:23;1.20;99.90
21508;DHT22;10915;54.352;9.074;2023-02-15T06:25:49;1.20;99.90
21508;DHT22;10915;54.352;9.074;2023-02-15T06:28:15;1.20;99.90
21508;DHT22;10915;54.352;9.074;2023-02-15T06:30:40;1.20;99.90
21508;DHT22;10915;54.352;9.074;2023-02-15T06:33:06;1.30;99.90
21508;DHT22;10915;54.352;9.074;2023-02-15T06:35:32;1.30;99.90
21508;DHT22;10915;54.352;9.074;2023-02-15T06:37:57;1.30;99.90
21508;DHT22;10915;54.352;9.074;2023-02-15T06:40:23;1.30;99.90
21508;DHT22;10915;54.352;9.074;2023-02-15T06:42:49;1.30;99.90
21508;DHT22;10915;54.352;9.074;2023-02-15T06:45:15;1.20;99.90
21508;DHT22;10915;54.352;9.074;2023-02-15T06:47:41;1.20;99.90
21508;DHT22;10915;54.352;9.074;2023-02-15T06:50:07;1.20;99.90
21508;DHT22;10915;54.352;9.074;2023-02-15T06:52:33;1.20;99.90
21508;DHT22;10915;54.352;9.074;2023-02-15T06:54:59;1.20;99.90
21508;DHT22;10915;54.352;9.074;2023-02-15T06:57:25;1.20;99.90
21508;DHT22;10915;54.352;9.074;2023-02-15T06:59:50;1.20;99.90
21508;DHT22;10915;54.352;9.074;2023-02-15T07:02:18;1.10;99.90
21508;DHT22;10915;54.352;9.074;2023-02-15T07:04:43;1.10;99.90
21508;DHT22;10915;54.352;9.074;2023-02-15T07:07:10;1.10;99.90
21508;DHT22;10915;54.352;9.074;2023-02-15T07:09:36;1.10;99.90
21508;DHT22;10915;54.352;9.074;2023-02-15T07:12:03;1.20;99.90
21508;DHT22;10915;54.352;9.074;2023-02-15T07:14:47;1.20;99.90
21508;DHT22;10915;54.352;9.074;2023-02-15T07:17:13;1.10;99.90
21508;DHT22;10915;54.352;9.074;2023-02-15T07:19:38;1.10;99.90
21508;DHT22;10915;54.352;9.074;2023-02-15T07:22:04;1.10;99.90
21508;DHT22;10915;54.352;9.074;2023-02-15T07:24:30;1.10;99.90
21508;DHT22;10915;54.352;9.074;2023-02-15T07:26:56;1.20;99.90
21508;DHT22;10915;54.352;9.074;2023-02-15T07:29:23;1.20;99.90
21508;DHT22;10915;54.352;9.074;2023-02-15T07:31:49;1.20;99.90
21508;DHT22;10915;54.352;9.074;2023-02-15T07:34:15;1.20;99.90
21508;DHT22;10915;54.352;9.074;2023-02-15T07:36:41;1.20;99.90
21508;DHT22;10915;54.352;9.074;2023-02-15T07:39:07;1.30;99.90
21508;DHT22;10915;54.352;9.074;2023-02-15T07:41:32;1.30;99.90
21508;DHT22;10915;54.352;9.074;2023-02-15T07:43:58;1.30;99.90
21508;DHT22;10915;54.352;9.074;2023-02-15T07:46:24;1.40;99.90
21508;DHT22;10915;54.352;9.074;2023-02-15T07:48:49;1.40;99.90
21508;DHT22;10915;54.352;9.074;2023-02-15T07:51:15;1.40;99.90
21508;DHT22;10915;54.352;9.074;2023-02-15T07:53:42;1.40;99.90
21508;DHT22;10915;54.352;9.074;2023-02-15T07:56:13;1.40;99.90
21508;DHT22;10915;54.352;9.074;2023-02-15T07:58:39;1.50;99.90
21508;DHT22;10915;54.352;9.074;2023-02-15T08:01:29;1.50;99.90
21508;DHT22;10915;54.352;9.074;2023-02-15T08:03:55;1.50;99.90
21508;DHT22;10915;54.352;9.074;2023-02-15T08:06:23;1.60;99.90
21508;DHT22;10915;54.352;9.074;2023-02-15T08:08:49;1.70;99.90
21508;DHT22;10915;54.352;9.074;2023-02-15T08:13:55;1.80;99.90
21508;DHT22;10915;54.352;9.074;2023-02-15T08:19:14;1.80;99.90
21508;DHT22;10915;54.352;9.074;2023-02-15T08:21:43;1.90;99.90
21508;DHT22;10915;54.352;9.074;2023-02-15T08:24:10;1.80;99.90
21508;DHT22;10915;54.352;9.074;2023-02-15T08:26:37;1.90;99.90
21508;DHT22;10915;54.352;9.074;2023-02-15T08:29:04;1.90;99.90
21508;DHT22;10915;54.352;9.074;2023-02-15T08:31:30;1.80;99.90
21508;DHT22;10915;54.352;9.074;2023-02-15T08:33:56;1.80;99.90
21508;DHT22;10915;54.352;9.074;2023-02-15T08:36:24;1.90;99.90
21508;DHT22;10915;54.352;9.074;2023-02-15T08:38:50;2.00;99.90
21508;DHT22;10915;54.352;9.074;2023-02-15T08:41:21;2.00;99.90
21508;DHT22;10915;54.352;9.074;2023-02-15T08:43:51;2.10;99.90
21508;DHT22;10915;54.352;9.074;2023-02-15T08:46:17;1.90;99.90
21508;DHT22;10915;54.352;9.074;2023-02-15T08:48:44;1.90;99.90
21508;DHT22;10915;54.352;9.074;2023-02-15T08:53:41;2.10;99.90
21508;DHT22;10915;54.352;9.074;2023-02-15T08:56:08;2.10;99.90
21508;DHT22;10915;54.352;9.074;2023-02-15T08:58:34;2.00;99.90
21508;DHT22;10915;54.352;9.074;2023-02-15T09:01:00;2.00;99.90
21508;DHT22;10915;54.352;9.074;2023-02-15T09:03:28;2.10;99.90
21508;DHT22;10915;54.352;9.074;2023-02-15T09:06:00;2.10;99.90
21508;DHT22;10915;54.352;9.074;2023-02-15T09:08:27;2.20;99.90
21508;DHT22;10915;54.352;9.074;2023-02-15T09:10:53;2.30;99.90
21508;DHT22;10915;54.352;9.074;2023-02-15T09:13:19;2.40;99.90
21508;DHT22;10915;54.352;9.074;2023-02-15T09:15:46;2.40;99.90
21508;DHT22;10915;54.352;9.074;2023-02-15T09:18:11;2.50;99.90
21508;DHT22;10915;54.352;9.074;2023-02-15T09:20:43;2.50;99.90
21508;DHT22;10915;54.352;9.074;2023-02-15T09:23:08;2.60;99.90
21508;DHT22;10915;54.352;9.074;2023-02-15T09:25:34;2.70;99.90
21508;DHT22;10915;54.352;9.074;2023-02-15T09:28:00;2.70;99.90
21508;DHT22;10915;54.352;9.074;2023-02-15T09:30:25;2.80;99.90
21508;DHT22;10915;54.352;9.074;2023-02-15T09:32:51;2.90;99.90
21508;DHT22;10915;54.352;9.074;2023-02-15T09:35:17;2.90;99.90
21508;DHT22;10915;54.352;9.074;2023-02-15T09:37:42;3.00;99.90
21508;DHT22;10915;54.352;9.074;2023-02-15T09:40:08;3.00;99.90
21508;DHT22;10915;54.352;9.074;2023-02-15T09:45:20;3.20;99.90
21508;DHT22;10915;54.352;9.074;2023-02-15T09:50:48;3.20;99.90
21508;DHT22;10915;54.352;9.074;2023-02-15T10:07:02;3.40;99.90
21508;DHT22;10915;54.352;9.074;2023-02-15T10:17:19;3.50;99.90
21508;DHT22;10915;54.352;9.074;2023-02-15T10:20:07;3.50;99.90
21508;DHT22;10915;54.352;9.074;2023-02-15T10:28:06;3.70;99.90
21508;DHT22;10915;54.352;9.074;2023-02-15T10:39:06;3.90;99.90
21508;DHT22;10915;54.352;9.074;2023-02-15T10:41:42;3.90;99.90
21508;DHT22;10915;54.352;9.074;2023-02-15T10:50:11;4.00;99.90
21508;DHT22;10915;54.352;9.074;2023-02-15T10:55:18;4.10;99.90
21508;DHT22;10915;54.352;9.074;2023-02-15T10:58:03;4.20;99.90
21508;DHT22;10915;54.352;9.074;2023-02-15T11:18:53;4.40;99.90
21508;DHT22;10915;54.352;9.074;2023-02-15T11:21:27;4.50;99.90
21508;DHT22;10915;54.352;9.074;2023-02-15T11:23:54;4.50;99.90
21508;DHT22;10915;54.352;9.074;2023-02-15T11:26:28;4.60;99.90
21508;DHT22;10915;54.352;9.074;2023-02-15T11:31:56;4.90;99.90
21508;DHT22;10915;54.352;9.074;2023-02-15T11:34:35;4.90;99.90
21508;DHT22;10915;54.352;9.074;2023-02-15T11:37:08;4.80;99.90
21508;DHT22;10915;54.352;9.074;2023-02-15T11:39:35;4.70;99.90
21508;DHT22;10915;54.352;9.074;2023-02-15T11:42:22;4.70;99.90
21508;DHT22;10915;54.352;9.074;2023-02-15T11:47:41;4.80;99.90
21508;DHT22;10915;54.352;9.074;2023-02-15T11:50:21;4.90;99.90
21508;DHT22;10915;54.352;9.074;2023-02-15T11:52:50;4.80;99.90
21508;DHT22;10915;54.352;9.074;2023-02-15T11:55:22;4.80;99.90
21508;DHT22;10915;54.352;9.074;2023-02-15T11:58:21;4.80;99.90
21508;DHT22;10915;54.352;9.074;2023-02-15T12:00:52;4.70;99.90
21508;DHT22;10915;54.352;9.074;2023-02-15T12:03:24;4.80;99.90
21508;DHT22;10915;54.352;9.074;2023-02-15T12:06:02;4.90;99.90
21508;DHT22;10915;54.352;9.074;2023-02-15T12:08:37;4.80;99.90
21508;DHT22;10915;54.352;9.074;2023-02-15T12:11:11;4.90;99.90
21508;DHT22;10915;54.352;9.074;2023-02-15T12:14:14;4.90;99.90
21508;DHT22;10915;54.352;9.074;2023-02-15T12:16:53;5.00;99.90
21508;DHT22;10915;54.352;9.074;2023-02-15T12:19:32;5.10;99.90
21508;DHT22;10915;54.352;9.074;2023-02-15T12:22:29;5.10;99.90
21508;DHT22;10915;54.352;9.074;2023-02-15T12:25:00;5.10;99.90
21508;DHT22;10915;54.352;9.074;2023-02-15T12:27:29;5.10;99.90
21508;DHT22;10915;54.352;9.074;2023-02-15T12:32:31;5.10;99.90
21508;DHT22;10915;54.352;9.074;2023-02-15T12:35:06;5.20;99.90
21508;DHT22;10915;54.352;9.074;2023-02-15T12:37:33;5.30;99.90
21508;DHT22;10915;54.352;9.074;2023-02-15T12:40:01;5.50;99.90
21508;DHT22;10915;54.352;9.074;2023-02-15T12:42:41;5.70;99.90
21508;DHT22;10915;54.352;9.074;2023-02-15T12:45:27;5.80;99.90
21508;DHT22;10915;54.352;9.074;2023-02-15T12:50:42;5.50;99.90
21508;DHT22;10915;54.352;9.074;2023-02-15T12:53:23;5.40;99.90
21508;DHT22;10915;54.352;9.074;2023-02-15T12:56:00;5.30;99.90
21508;DHT22;10915;54.352;9.074;2023-02-15T12:58:32;5.30;99.90
21508;DHT22;10915;54.352;9.074;2023-02-15T13:01:16;5.40;99.90
21508;DHT22;10915;54.352;9.074;2023-02-15T13:04:03;5.60;99.90
21508;DHT22;10915;54.352;9.074;2023-02-15T13:06:33;5.40;99.90
21508;DHT22;10915;54.352;9.074;2023-02-15T13:12:30;5.40;99.90
21508;DHT22;10915;54.352;9.074;2023-02-15T13:15:00;5.60;99.90
21508;DHT22;10915;54.352;9.074;2023-02-15T13:17:30;5.60;99.90
21508;DHT22;10915;54.352;9.074;2023-02-15T13:20:26;5.60;99.90
21508;DHT22;10915;54.352;9.074;2023-02-15T13:23:03;5.60;99.90
21508;DHT22;10915;54.352;9.074;2023-02-15T13:25:35;5.50;99.90
21508;DHT22;10915;54.352;9.074;2023-02-15T13:28:06;5.60;99.90
21508;DHT22;10915;54.352;9.074;2023-02-15T13:30:38;5.60;99.90
21508;DHT22;10915;54.352;9.074;2023-02-15T13:33:26;5.60;99.90
21508;DHT22;10915;54.352;9.074;2023-02-15T13:36:05;5.40;99.90
21508;DHT22;10915;54.352;9.074;2023-02-15T13:41:10;5.40;99.90
21508;DHT22;10915;54.352;9.074;2023-02-15T13:54:33;5.80;99.90
21508;DHT22;10915;54.352;9.074;2023-02-15T14:10:38;5.80;99.90
21508;DHT22;10915;54.352;9.074;2023-02-15T14:15:53;5.90;99.90
21508;DHT22;10915;54.352;9.074;2023-02-15T14:21:19;6.00;99.90
21508;DHT22;10915;54.352;9.074;2023-02-15T14:24:36;6.00;99.90
21508;DHT22;10915;54.352;9.074;2023-02-15T14:29:58;6.10;99.90
21508;DHT22;10915;54.352;9.074;2023-02-15T14:32:38;6.10;99.90
21508;DHT22;10915;54.352;9.074;2023-02-15T14:35:16;6.00;99.90
21508;DHT22;10915;54.352;9.074;2023-02-15T14:37:54;6.00;99.90
21508;DHT22;10915;54.352;9.074;2023-02-15T14:46:34;6.20;99.90
21508;DHT22;10915;54.352;9.074;2023-02-15T14:59:43;6.00;99.90
21508;DHT22;10915;54.352;9.074;2023-02-15T15:05:07;6.00;99.90
21508;DHT22;10915;54.352;9.074;2023-02-15T15:10:40;6.00;99.90
21508;DHT22;10915;54.352;9.074;2023-02-15T15:18:51;6.00;99.90
21508;DHT22;10915;54.352;9.074;2023-02-15T15:33:04;6.00;99.90
21508;DHT22;10915;54.352;9.074;2023-02-15T15:44:31;5.70;99.90
21508;DHT22;10915;54.352;9.074;2023-02-15T15:49:57;5.50;99.90
21508;DHT22;10915;54.352;9.074;2023-02-15T15:52:23;5.50;99.90
21508;DHT22;10915;54.352;9.074;2023-02-15T15:54:56;5.50;99.90
21508;DHT22;10915;54.352;9.074;2023-02-15T15:57:32;5.50;99.90
21508;DHT22;10915;54.352;9.074;2023-02-15T15:59:59;5.40;99.90
21508;DHT22;10915;54.352;9.074;2023-02-15T16:02:25;5.30;99.90
21508;DHT22;10915;54.352;9.074;2023-02-15T16:04:52;5.30;99.90
21508;DHT22;10915;54.352;9.074;2023-02-15T16:10:06;5.30;99.90
21508;DHT22;10915;54.352;9.074;2023-02-15T16:12:34;5.20;99.90
21508;DHT22;10915;54.352;9.074;2023-02-15T16:15:15;5.20;99.90
21508;DHT22;10915;54.352;9.074;2023-02-15T16:17:43;5.20;99.90
21508;DHT22;10915;54.352;9.074;2023-02-15T16:20:23;5.10;99.90
21508;DHT22;10915;54.352;9.074;2023-02-15T16:22:57;5.10;99.90
21508;DHT22;10915;54.352;9.074;2023-02-15T16:28:08;5.10;99.90
21508;DHT22;10915;54.352;9.074;2023-02-15T16:30:36;5.10;99.90
21508;DHT22;10915;54.352;9.074;2023-02-15T16:33:15;5.10;99.90
21508;DHT22;10915;54.352;9.074;2023-02-15T16:35:58;5.10;99.90
21508;DHT22;10915;54.352;9.074;2023-02-15T16:41:16;5.10;99.90
21508;DHT22;10915;54.352;9.074;2023-02-15T16:43:44;5.10;99.90
21508;DHT22;10915;54.352;9.074;2023-02-15T16:46:24;5.10;99.90
21508;DHT22;10915;54.352;9.074;2023-02-15T16:48:52;5.00;99.90
21508;DHT22;10915;54.352;9.074;2023-02-15T16:51:22;5.00;99.90
21508;DHT22;10915;54.352;9.074;2023-02-15T16:53:49;5.00;99.90
21508;DHT22;10915;54.352;9.074;2023-02-15T16:56:15;5.00;99.90
21508;DHT22;10915;54.352;9.074;2023-02-15T16:58:50;5.00;99.90
21508;DHT22;10915;54.352;9.074;2023-02-15T17:01:20;5.10;99.90
21508;DHT22;10915;54.352;9.074;2023-02-15T17:03:49;5.10;99.90
21508;DHT22;10915;54.352;9.074;2023-02-15T17:06:24;5.10;99.90
21508;DHT22;10915;54.352;9.074;2023-02-15T17:09:04;5.10;99.90
21508;DHT22;10915;54.352;9.074;2023-02-15T17:11:36;5.00;99.90
21508;DHT22;10915;54.352;9.074;2023-02-15T17:16:47;5.00;99.90
21508;DHT22;10915;54.352;9.074;2023-02-15T17:19:23;5.00;99.90
21508;DHT22;10915;54.352;9.074;2023-02-15T17:22:20;4.90;99.90
21508;DHT22;10915;54.352;9.074;2023-02-15T17:24:47;4.80;99.90
21508;DHT22;10915;54.352;9.074;2023-02-15T17:27:24;4.80;99.90
21508;DHT22;10915;54.352;9.074;2023-02-15T17:29:55;4.80;99.90
21508;DHT22;10915;54.352;9.074;2023-02-15T17:32:24;4.80;99.90
21508;DHT22;10915;54.352;9.074;2023-02-15T17:39:58;4.70;99.90
21508;DHT22;10915;54.352;9.074;2023-02-15T17:42:24;4.80;99.90
21508;DHT22;10915;54.352;9.074;2023-02-15T17:44:50;4.70;99.90
21508;DHT22;10915;54.352;9.074;2023-02-15T17:47:20;4.70;99.90
21508;DHT22;10915;54.352;9.074;2023-02-15T17:49:48;4.80;99.90
21508;DHT22;10915;54.352;9.074;2023-02-15T17:52:15;4.80;99.90
21508;DHT22;10915;54.352;9.074;2023-02-15T17:54:42;4.90;99.90
21508;DHT22;10915;54.352;9.074;2023-02-15T17:57:46;4.90;99.90
21508;DHT22;10915;54.352;9.074;2023-02-15T18:00:13;4.80;99.90
21508;DHT22;10915;54.352;9.074;2023-02-15T18:02:57;4.80;99.90
21508;DHT22;10915;54.352;9.074;2023-02-15T18:05:41;4.80;99.90
21508;DHT22;10915;54.352;9.074;2023-02-15T18:08:27;4.80;99.90
21508;DHT22;10915;54.352;9.074;2023-02-15T18:11:12;4.80;99.90
21508;DHT22;10915;54.352;9.074;2023-02-15T18:13:56;4.70;99.90
21508;DHT22;10915;54.352;9.074;2023-02-15T18:16:28;4.60;99.90
21508;DHT22;10915;54.352;9.074;2023-02-15T18:18:55;4.50;99.90
21508;DHT22;10915;54.352;9.074;2023-02-15T18:21:23;4.50;99.90
21508;DHT22;10915;54.352;9.074;2023-02-15T18:23:49;4.50;99.90
21508;DHT22;10915;54.352;9.074;2023-02-15T18:26:20;4.50;99.90
21508;DHT22;10915;54.352;9.074;2023-02-15T18:28:46;4.60;99.90
21508;DHT22;10915;54.352;9.074;2023-02-15T18:31:12;4.60;99.90
21508;DHT22;10915;54.352;9.074;2023-02-15T18:33:42;4.70;99.90
21508;DHT22;10915;54.352;9.074;2023-02-15T18:36:14;4.60;99.90
21508;DHT22;10915;54.352;9.074;2023-02-15T18:38:41;4.60;99.90
21508;DHT22;10915;54.352;9.074;2023-02-15T18:41:14;4.60;99.90
21508;DHT22;10915;54.352;9.074;2023-02-15T18:43:40;4.50;99.90
21508;DHT22;10915;54.352;9.074;2023-02-15T18:46:07;4.50;99.90
21508;DHT22;10915;54.352;9.074;2023-02-15T18:48:33;4.50;99.90
21508;DHT22;10915;54.352;9.074;2023-02-15T18:50:59;4.50;99.90
21508;DHT22;10915;54.352;9.074;2023-02-15T18:53:25;4.50;99.90
21508;DHT22;10915;54.352;9.074;2023-02-15T18:55:50;4.50;99.90
21508;DHT22;10915;54.352;9.074;2023-02-15T18:58:18;4.50;99.90
21508;DHT22;10915;54.352;9.074;2023-02-15T19:00:45;4.60;99.90
21508;DHT22;10915;54.352;9.074;2023-02-15T19:03:15;4.50;99.90
21508;DHT22;10915;54.352;9.074;2023-02-15T19:05:44;4.50;99.90
21508;DHT22;10915;54.352;9.074;2023-02-15T19:08:21;4.40;99.90
21508;DHT22;10915;54.352;9.074;2023-02-15T19:10:49;4.40;99.90
21508;DHT22;10915;54.352;9.074;2023-02-15T19:13:15;4.30;99.90
21508;DHT22;10915;54.352;9.074;2023-02-15T19:15:42;4.30;99.90
21508;DHT22;10915;54.352;9.074;2023-02-15T19:18:11;4.30;99.90
21508;DHT22;10915;54.352;9.074;2023-02-15T19:20:39;4.20;99.90
21508;DHT22;10915;54.352;9.074;2023-02-15T19:23:10;4.20;99.90
21508;DHT22;10915;54.352;9.074;2023-02-15T19:25:39;4.20;99.90
21508;DHT22;10915;54.352;9.074;2023-02-15T19:28:11;4.10;99.90
21508;DHT22;10915;54.352;9.074;2023-02-15T19:30:39;4.10;99.90
21508;DHT22;10915;54.352;9.074;2023-02-15T19:33:04;4.10;99.90
21508;DHT22;10915;54.352;9.074;2023-02-15T19:35:33;4.10;99.90
21508;DHT22;10915;54.352;9.074;2023-02-15T19:38:06;4.00;99.90
21508;DHT22;10915;54.352;9.074;2023-02-15T19:40:36;4.00;99.90
21508;DHT22;10915;54.352;9.074;2023-02-15T19:43:02;4.00;99.90
21508;DHT22;10915;54.352;9.074;2023-02-15T19:45:30;4.00;99.90
21508;DHT22;10915;54.352;9.074;2023-02-15T19:47:56;4.00;99.90
21508;DHT22;10915;54.352;9.074;2023-02-15T19:50:28;3.90;99.90
21508;DHT22;10915;54.352;9.074;2023-02-15T19:52:55;3.80;99.90
21508;DHT22;10915;54.352;9.074;2023-02-15T19:55:26;3.70;99.90